sensor_id;sensor_type;location;lat;lon;timestamp;pressure;altitude;pressure_sealevel;temperature;humidity
40205;BME280;26963;42.666;23.366;2022-10-30T00:00:00;95680.13;;;11.75;52.67
40205;BME280;26963;42.666;23.366;2022-10-30T00:02:26;95688.69;;;11.77;52.61
40205;BME280;26963;42.666;23.366;2022-10-30T00:04:51;95717.06;;;11.83;52.44
40205;BME280;26963;42.666;23.366;2022-10-30T00:07:17;95720.25;;;11.85;53.68
40205;BME280;26963;42.666;23.366;2022-10-30T00:09:42;95742.16;;;11.98;53.37
40205;BME280;26963;42.666;23.366;2022-10-30T00:12:08;95729.28;;;12.00;53.20
40205;BME280;26963;42.666;23.366;2022-10-30T00:14:33;95604.94;;;11.26;53.49
40205;BME280;26963;42.666;23.366;2022-10-30T00:16:59;95741.84;;;12.04;53.50
40205;BME280;26963;42.666;23.366;2022-10-30T00:19:24;95738.66;;;12.02;53.50
40205;BME280;26963;42.666;23.366;2022-10-30T00:21:50;95711.66;;;11.88;53.49
40205;BME280;26963;42.666;23.366;2022-10-30T00:24:15;95695.06;;;11.81;52.98
40205;BME280;26963;42.666;23.366;2022-10-30T00:26:41;95730.06;;;12.00;52.68
40205;BME280;26963;42.666;23.366;2022-10-30T00:29:06;95729.06;;;11.91;52.87
40205;BME280;26963;42.666;23.366;2022-10-30T00:31:32;95738.94;;;11.96;52.90
40205;BME280;26963;42.666;23.366;2022-10-30T00:33:57;95719.41;;;11.90;52.96
40205;BME280;26963;42.666;23.366;2022-10-30T00:36:23;95710.03;;;11.87;53.08
40205;BME280;26963;42.666;23.366;2022-10-30T00:38:48;95728.72;;;12.03;52.82
40205;BME280;26963;42.666;23.366;2022-10-30T00:41:19;95711.94;;;11.87;52.07
40205;BME280;26963;42.666;23.366;2022-10-30T00:43:45;95704.31;;;11.65;53.01
40205;BME280;26963;42.666;23.366;2022-10-30T00:48:51;95726.31;;;12.01;51.19
40205;BME280;26963;42.666;23.366;2022-10-30T00:51:19;95726.31;;;12.01;51.50
40205;BME280;26963;42.666;23.366;2022-10-30T00:53:45;95694.88;;;11.72;51.67
40205;BME280;26963;42.666;23.366;2022-10-30T00:56:13;95724.72;;;11.95;51.61
40205;BME280;26963;42.666;23.366;2022-10-30T00:58:45;95662.59;;;11.53;52.06
40205;BME280;26963;42.666;23.366;2022-10-30T01:01:18;95726.38;;;11.91;52.46
40205;BME280;26963;42.666;23.366;2022-10-30T01:03:47;95675.63;;;11.65;51.55
40205;BME280;26963;42.666;23.366;2022-10-30T01:06:14;95679.63;;;11.68;50.89
40205;BME280;26963;42.666;23.366;2022-10-30T01:08:41;95637.56;;;11.34;51.48
40205;BME280;26963;42.666;23.366;2022-10-30T01:11:08;95709.06;;;11.78;51.77
40205;BME280;26963;42.666;23.366;2022-10-30T01:13:35;95695.38;;;11.80;52.40
40205;BME280;26963;42.666;23.366;2022-10-30T01:18:56;95693.47;;;11.80;52.64
40205;BME280;26963;42.666;23.366;2022-10-30T01:26:51;95690.13;;;11.64;52.75
40205;BME280;26963;42.666;23.366;2022-10-30T01:40:12;95691.53;;;11.51;52.40
40205;BME280;26963;42.666;23.366;2022-10-30T01:51:22;95687.00;;;11.07;54.22
40205;BME280;26963;42.666;23.366;2022-10-30T01:53:59;95679.00;;;11.02;53.89
40205;BME280;26963;42.666;23.366;2022-10-30T01:59:30;95688.41;;;10.94;54.19
40205;BME280;26963;42.666;23.366;2022-10-30T02:01:57;95690.56;;;10.92;53.73
40205;BME280;26963;42.666;23.366;2022-10-30T02:04:23;95668.97;;;10.78;53.83
40205;BME280;26963;42.666;23.366;2022-10-30T02:06:49;95619.88;;;10.33;54.60
40205;BME280;26963;42.666;23.366;2022-10-30T02:09:16;95596.94;;;10.16;54.73
40205;BME280;26963;42.666;23.366;2022-10-30T02:11:44;95673.31;;;10.53;54.06
40205;BME280;26963;42.666;23.366;2022-10-30T02:14:11;95620.41;;;10.29;54.47
40205;BME280;26963;42.666;23.366;2022-10-30T02:16:41;95672.50;;;10.63;54.42
40205;BME280;26963;42.666;23.366;2022-10-30T02:19:09;95665.56;;;10.52;54.58
40205;BME280;26963;42.666;23.366;2022-10-30T02:21:34;95645.56;;;10.34;55.55
40205;BME280;26963;42.666;23.366;2022-10-30T02:24:00;95678.16;;;10.56;55.38
40205;BME280;26963;42.666;23.366;2022-10-30T02:26:25;95634.31;;;10.37;55.53
40205;BME280;26963;42.666;23.366;2022-10-30T02:28:51;95614.25;;;10.29;54.68
40205;BME280;26963;42.666;23.366;2022-10-30T02:31:16;95671.69;;;10.63;55.33
40205;BME280;26963;42.666;23.366;2022-10-30T02:33:46;95663.13;;;10.60;55.14
40205;BME280;26963;42.666;23.366;2022-10-30T02:36:12;95629.50;;;10.34;55.33
40205;BME280;26963;42.666;23.366;2022-10-30T02:38:40;95678.94;;;10.57;55.57
40205;BME280;26963;42.666;23.366;2022-10-30T02:41:06;95643.91;;;10.48;55.22
40205;BME280;26963;42.666;23.366;2022-10-30T02:43:31;95584.66;;;10.10;55.16
40205;BME280;26963;42.666;23.366;2022-10-30T02:45:57;95663.94;;;10.61;55.21
40205;BME280;26963;42.666;23.366;2022-10-30T02:48:22;95634.31;;;10.37;55.54
40205;BME280;26963;42.666;23.366;2022-10-30T02:50:48;95664.22;;;10.59;55.58
40205;BME280;26963;42.666;23.366;2022-10-30T02:53:13;95653.56;;;10.44;54.80
40205;BME280;26963;42.666;23.366;2022-10-30T02:55:39;95664.81;;;10.36;55.04
40205;BME280;26963;42.666;23.366;2022-10-30T02:58:05;95658.94;;;10.23;54.96
40205;BME280;26963;42.666;23.366;2022-10-30T03:00:30;95675.78;;;10.24;56.02
40205;BME280;26963;42.666;23.366;2022-10-30T03:02:56;95687.53;;;10.33;57.13
40205;BME280;26963;42.666;23.366;2022-10-30T03:05:22;95672.59;;;10.22;56.29
40205;BME280;26963;42.666;23.366;2022-10-30T03:07:47;95641.88;;;9.99;56.30
40205;BME280;26963;42.666;23.366;2022-10-30T03:10:13;95660.56;;;10.19;57.18
40205;BME280;26963;42.666;23.366;2022-10-30T03:12:39;95690.50;;;10.37;56.83
40205;BME280;26963;42.666;23.366;2022-10-30T03:15:05;95695.78;;;10.57;57.21
40205;BME280;26963;42.666;23.366;2022-10-30T03:17:31;95694.69;;;10.64;56.74
40205;BME280;26963;42.666;23.366;2022-10-30T03:19:56;95676.75;;;10.69;55.37
40205;BME280;26963;42.666;23.366;2022-10-30T03:22:22;95683.47;;;10.62;54.14
40205;BME280;26963;42.666;23.366;2022-10-30T03:24:48;95697.38;;;10.64;54.62
40205;BME280;26963;42.666;23.366;2022-10-30T03:27:13;95676.81;;;10.59;54.68
40205;BME280;26963;42.666;23.366;2022-10-30T03:29:39;95651.44;;;10.31;54.66
40205;BME280;26963;42.666;23.366;2022-10-30T03:32:08;95683.25;;;10.53;53.87
40205;BME280;26963;42.666;23.366;2022-10-30T03:34:35;95671.78;;;10.21;54.90
40205;BME280;26963;42.666;23.366;2022-10-30T03:37:00;95681.41;;;10.27;55.03
40205;BME280;26963;42.666;23.366;2022-10-30T03:39:26;95687.03;;;10.31;55.94
40205;BME280;26963;42.666;23.366;2022-10-30T03:41:51;95615.72;;;9.75;56.13
40205;BME280;26963;42.666;23.366;2022-10-30T03:44:17;95669.16;;;10.11;55.85
40205;BME280;26963;42.666;23.366;2022-10-30T03:46:43;95691.03;;;10.39;55.52
40205;BME280;26963;42.666;23.366;2022-10-30T03:49:08;95622.91;;;10.00;56.19
40205;BME280;26963;42.666;23.366;2022-10-30T03:51:34;95689.94;;;10.50;56.35
40205;BME280;26963;42.666;23.366;2022-10-30T03:53:59;95633.78;;;10.24;56.59
40205;BME280;26963;42.666;23.366;2022-10-30T03:56:25;95670.13;;;10.51;54.61
40205;BME280;26963;42.666;23.366;2022-10-30T03:58:50;95623.63;;;10.32;52.92
40205;BME280;26963;42.666;23.366;2022-10-30T04:01:16;95599.13;;;9.99;53.92
40205;BME280;26963;42.666;23.366;2022-10-30T04:03:41;95676.31;;;10.41;54.45
40205;BME280;26963;42.666;23.366;2022-10-30T04:06:07;95680.31;;;10.49;55.50
40205;BME280;26963;42.666;23.366;2022-10-30T04:08:33;95649.81;;;10.35;55.07
40205;BME280;26963;42.666;23.366;2022-10-30T04:10:58;95685.13;;;10.47;54.41
40205;BME280;26963;42.666;23.366;2022-10-30T04:13:24;95602.03;;;10.07;54.88
40205;BME280;26963;42.666;23.366;2022-10-30T04:15:50;95674.66;;;10.56;53.16
40205;BME280;26963;42.666;23.366;2022-10-30T04:18:16;95668.00;;;10.48;53.65
40205;BME280;26963;42.666;23.366;2022-10-30T04:20:43;95659.47;;;10.36;53.80
40205;BME280;26963;42.666;23.366;2022-10-30T04:23:12;95645.31;;;10.25;54.27
40205;BME280;26963;42.666;23.366;2022-10-30T04:25:38;95681.94;;;10.45;53.62
40205;BME280;26963;42.666;23.366;2022-10-30T04:28:04;95662.13;;;10.41;54.83
40205;BME280;26963;42.666;23.366;2022-10-30T04:30:29;95674.41;;;10.47;54.74
40205;BME280;26963;42.666;23.366;2022-10-30T04:33:00;95671.22;;;10.45;54.15
40205;BME280;26963;42.666;23.366;2022-10-30T04:35:28;95673.63;;;10.47;53.63
40205;BME280;26963;42.666;23.366;2022-10-30T04:38:06;95551.09;;;9.62;53.71
40205;BME280;26963;42.666;23.366;2022-10-30T04:40:33;95660.00;;;10.27;54.10
40205;BME280;26963;42.666;23.366;2022-10-30T04:42:59;95668.03;;;10.33;53.62
40205;BME280;26963;42.666;23.366;2022-10-30T04:45:25;95615.72;;;9.85;53.78
40205;BME280;26963;42.666;23.366;2022-10-30T04:47:51;95615.72;;;9.85;53.91
40205;BME280;26963;42.666;23.366;2022-10-30T04:50:18;95691.56;;;10.31;54.26
40205;BME280;26963;42.666;23.366;2022-10-30T04:52:43;95618.91;;;9.87;54.34
40205;BME280;26963;42.666;23.366;2022-10-30T04:55:09;95668.56;;;10.19;53.88
40205;BME280;26963;42.666;23.366;2022-10-30T04:57:36;95666.16;;;10.23;54.63
40205;BME280;26963;42.666;23.366;2022-10-30T05:00:06;95687.81;;;10.32;54.34
40205;BME280;26963;42.666;23.366;2022-10-30T05:02:35;95669.63;;;10.23;53.63
40205;BME280;26963;42.666;23.366;2022-10-30T05:05:01;95680.31;;;10.34;54.45
40205;BME280;26963;42.666;23.366;2022-10-30T05:07:27;95693.94;;;10.32;54.24
40205;BME280;26963;42.666;23.366;2022-10-30T05:09:52;95692.91;;;10.28;54.29
40205;BME280;26963;42.666;23.366;2022-10-30T05:12:18;95601.34;;;9.60;53.85
40205;BME280;26963;42.666;23.366;2022-10-30T05:14:43;95692.91;;;10.18;54.37
40205;BME280;26963;42.666;23.366;2022-10-30T05:17:09;95652.06;;;9.81;54.50
40205;BME280;26963;42.666;23.366;2022-10-30T05:19:34;95697.47;;;10.17;54.26
40205;BME280;26963;42.666;23.366;2022-10-30T05:22:00;95666.47;;;9.95;54.42
40205;BME280;26963;42.666;23.366;2022-10-30T05:24:25;95655.00;;;9.90;54.31
40205;BME280;26963;42.666;23.366;2022-10-30T05:26:51;95633.66;;;9.69;54.34
40205;BME280;26963;42.666;23.366;2022-10-30T05:29:16;95632.56;;;9.65;54.22
40205;BME280;26963;42.666;23.366;2022-10-30T05:31:42;95679.31;;;9.93;54.86
40205;BME280;26963;42.666;23.366;2022-10-30T05:34:08;95701.25;;;10.01;54.74
40205;BME280;26963;42.666;23.366;2022-10-30T05:36:33;95696.97;;;10.05;55.35
40205;BME280;26963;42.666;23.366;2022-10-30T05:38:59;95691.88;;;10.03;55.02
40205;BME280;26963;42.666;23.366;2022-10-30T05:41:27;95704.41;;;10.23;53.98
40205;BME280;26963;42.666;23.366;2022-10-30T05:43:53;95691.03;;;10.18;54.66
40205;BME280;26963;42.666;23.366;2022-10-30T05:46:18;95692.13;;;10.17;54.85
40205;BME280;26963;42.666;23.366;2022-10-30T05:48:44;95693.72;;;10.28;55.13
40205;BME280;26963;42.666;23.366;2022-10-30T05:51:09;95698.50;;;10.32;55.65
40205;BME280;26963;42.666;23.366;2022-10-30T05:53:35;95690.75;;;10.35;55.90
40205;BME280;26963;42.666;23.366;2022-10-30T05:56:00;95687.03;;;10.41;55.46
40205;BME280;26963;42.666;23.366;2022-10-30T05:58:27;95658.66;;;10.30;54.95
40205;BME280;26963;42.666;23.366;2022-10-30T06:00:53;95696.34;;;10.54;54.70
40205;BME280;26963;42.666;23.366;2022-10-30T06:03:18;95674.69;;;10.46;54.75
40205;BME280;26963;42.666;23.366;2022-10-30T06:05:45;95622.59;;;10.22;54.83
40205;BME280;26963;42.666;23.366;2022-10-30T06:08:11;95674.88;;;10.65;54.91
40205;BME280;26963;42.666;23.366;2022-10-30T06:10:37;95687.66;;;10.83;54.84
40205;BME280;26963;42.666;23.366;2022-10-30T06:13:05;95666.81;;;10.75;54.75
40205;BME280;26963;42.666;23.366;2022-10-30T06:15:31;95687.38;;;10.90;54.84
40205;BME280;26963;42.666;23.366;2022-10-30T06:17:57;95640.06;;;10.70;54.33
40205;BME280;26963;42.666;23.366;2022-10-30T06:20:25;95695.56;;;11.09;54.69
40205;BME280;26963;42.666;23.366;2022-10-30T06:23:05;95674.50;;;10.92;54.70
40205;BME280;26963;42.666;23.366;2022-10-30T06:25:34;95683.56;;;11.01;54.80
40205;BME280;26963;42.666;23.366;2022-10-30T06:28:00;95636.31;;;10.71;54.51
40205;BME280;26963;42.666;23.366;2022-10-30T06:30:26;95685.56;;;11.25;54.26
40205;BME280;26963;42.666;23.366;2022-10-30T06:32:56;95689.31;;;11.64;53.27
40205;BME280;26963;42.666;23.366;2022-10-30T06:35:21;95600.31;;;11.32;52.74
40205;BME280;26963;42.666;23.366;2022-10-30T06:37:47;95696.31;;;12.23;52.14
40205;BME280;26963;42.666;23.366;2022-10-30T06:40:13;95699.72;;;12.59;51.15
40205;BME280;26963;42.666;23.366;2022-10-30T06:42:44;95697.13;;;12.97;50.49
40205;BME280;26963;42.666;23.366;2022-10-30T06:45:11;95674.34;;;13.13;49.53
40205;BME280;26963;42.666;23.366;2022-10-30T06:47:37;95569.50;;;12.80;48.72
40205;BME280;26963;42.666;23.366;2022-10-30T06:50:07;95667.13;;;13.85;47.38
40205;BME280;26963;42.666;23.366;2022-10-30T06:52:33;95691.81;;;14.20;46.88
40205;BME280;26963;42.666;23.366;2022-10-30T06:54:59;95643.66;;;14.18;46.91
40205;BME280;26963;42.666;23.366;2022-10-30T06:57:24;95709.06;;;14.80;45.87
40205;BME280;26963;42.666;23.366;2022-10-30T06:59:51;95702.16;;;15.02;45.30
40205;BME280;26963;42.666;23.366;2022-10-30T07:02:16;95692.56;;;15.09;45.03
40205;BME280;26963;42.666;23.366;2022-10-30T07:04:42;95530.34;;;13.92;45.15
40205;BME280;26963;42.666;23.366;2022-10-30T07:07:07;95688.03;;;15.19;44.91
40205;BME280;26963;42.666;23.366;2022-10-30T07:09:33;95571.28;;;14.31;44.98
40205;BME280;26963;42.666;23.366;2022-10-30T07:11:58;95699.38;;;15.43;44.41
40205;BME280;26963;42.666;23.366;2022-10-30T07:14:24;95691.19;;;15.71;43.86
40205;BME280;26963;42.666;23.366;2022-10-30T07:16:49;95679.56;;;15.85;43.76
40205;BME280;26963;42.666;23.366;2022-10-30T07:19:15;95691.44;;;16.29;42.91
40205;BME280;26963;42.666;23.366;2022-10-30T07:21:40;95642.81;;;16.29;42.59
40205;BME280;26963;42.666;23.366;2022-10-30T07:24:06;95670.00;;;16.82;42.10
40205;BME280;26963;42.666;23.366;2022-10-30T07:26:32;95665.97;;;17.10;41.20
40205;BME280;26963;42.666;23.366;2022-10-30T07:29:05;95666.63;;;17.25;41.05
40205;BME280;26963;42.666;23.366;2022-10-30T07:31:30;95669.66;;;17.50;40.97
40205;BME280;26963;42.666;23.366;2022-10-30T07:33:56;95651.19;;;17.69;40.91
40205;BME280;26963;42.666;23.366;2022-10-30T07:36:23;95655.94;;;17.99;40.66
40205;BME280;26963;42.666;23.366;2022-10-30T07:38:49;95667.00;;;18.32;40.05
40205;BME280;26963;42.666;23.366;2022-10-30T07:41:16;95679.78;;;18.70;39.43
40205;BME280;26963;42.666;23.366;2022-10-30T07:43:42;95613.13;;;18.39;39.31
40205;BME280;26963;42.666;23.366;2022-10-30T07:46:08;95639.13;;;18.70;39.41
40205;BME280;26963;42.666;23.366;2022-10-30T07:48:33;95663.56;;;19.00;39.20
40205;BME280;26963;42.666;23.366;2022-10-30T07:50:59;95670.06;;;19.29;38.79
40205;BME280;26963;42.666;23.366;2022-10-30T07:53:24;95644.09;;;19.40;38.55
40205;BME280;26963;42.666;23.366;2022-10-30T07:55:50;95655.38;;;19.72;38.21
40205;BME280;26963;42.666;23.366;2022-10-30T07:58:15;95613.50;;;19.74;38.05
40205;BME280;26963;42.666;23.366;2022-10-30T08:00:41;95650.53;;;20.12;37.97
40205;BME280;26963;42.666;23.366;2022-10-30T08:03:07;95601.03;;;19.94;37.92
40205;BME280;26963;42.666;23.366;2022-10-30T08:05:33;95638.91;;;20.36;37.49
40205;BME280;26963;42.666;23.366;2022-10-30T08:07:59;95633.72;;;20.43;37.45
40205;BME280;26963;42.666;23.366;2022-10-30T08:10:25;95651.97;;;20.67;36.96
40205;BME280;26963;42.666;23.366;2022-10-30T08:12:50;95531.00;;;19.99;36.88
40205;BME280;26963;42.666;23.366;2022-10-30T08:15:16;95567.44;;;20.35;37.00
40205;BME280;26963;42.666;23.366;2022-10-30T08:17:44;95620.94;;;20.81;36.94
40205;BME280;26963;42.666;23.366;2022-10-30T08:20:11;95619.16;;;20.73;36.37
40205;BME280;26963;42.666;23.366;2022-10-30T08:23:03;95634.06;;;20.54;36.67
40205;BME280;26963;42.666;23.366;2022-10-30T08:25:30;95627.22;;;20.11;37.44
40205;BME280;26963;42.666;23.366;2022-10-30T08:27:59;95412.00;;;18.42;38.05
40205;BME280;26963;42.666;23.366;2022-10-30T08:30:28;95565.31;;;19.37;38.31
40205;BME280;26963;42.666;23.366;2022-10-30T08:32:58;95612.84;;;19.77;38.48
40205;BME280;26963;42.666;23.366;2022-10-30T08:35:24;95617.00;;;19.95;38.02
40205;BME280;26963;42.666;23.366;2022-10-30T08:37:56;95627.66;;;20.13;37.61
40205;BME280;26963;42.666;23.366;2022-10-30T08:40:25;95629.75;;;20.28;37.74
40205;BME280;26963;42.666;23.366;2022-10-30T08:42:52;95591.19;;;19.89;37.99
40205;BME280;26963;42.666;23.366;2022-10-30T08:45:19;95629.03;;;20.19;38.10
40205;BME280;26963;42.666;23.366;2022-10-30T08:47:45;95531.81;;;19.66;38.31
40205;BME280;26963;42.666;23.366;2022-10-30T08:50:11;95608.22;;;20.23;37.66
40205;BME280;26963;42.666;23.366;2022-10-30T08:52:36;95561.00;;;20.03;37.52
40205;BME280;26963;42.666;23.366;2022-10-30T08:55:02;95564.75;;;20.23;37.28
40205;BME280;26963;42.666;23.366;2022-10-30T08:57:28;95592.38;;;20.62;37.06
40205;BME280;26963;42.666;23.366;2022-10-30T08:59:53;95593.09;;;20.72;37.01
40205;BME280;26963;42.666;23.366;2022-10-30T09:02:19;95598.72;;;20.91;36.99
40205;BME280;26963;42.666;23.366;2022-10-30T09:04:44;95576.41;;;20.85;37.08
40205;BME280;26963;42.666;23.366;2022-10-30T09:07:10;95606.19;;;21.07;37.02
40205;BME280;26963;42.666;23.366;2022-10-30T09:09:35;95583.31;;;20.95;36.81
40205;BME280;26963;42.666;23.366;2022-10-30T09:12:01;95605.16;;;21.11;36.82
40205;BME280;26963;42.666;23.366;2022-10-30T09:14:26;95592.38;;;20.99;37.08
40205;BME280;26963;42.666;23.366;2022-10-30T09:16:53;95537.31;;;20.65;37.16
40205;BME280;26963;42.666;23.366;2022-10-30T09:19:19;95523.97;;;20.60;37.10
40205;BME280;26963;42.666;23.366;2022-10-30T09:21:45;95591.53;;;21.11;37.17
40205;BME280;26963;42.666;23.366;2022-10-30T09:24:10;95596.69;;;21.00;37.15
40205;BME280;26963;42.666;23.366;2022-10-30T09:26:36;95531.88;;;20.65;37.10
40205;BME280;26963;42.666;23.366;2022-10-30T09:29:01;95534.41;;;20.71;37.17
40205;BME280;26963;42.666;23.366;2022-10-30T09:31:27;95593.25;;;21.16;36.80
40205;BME280;26963;42.666;23.366;2022-10-30T09:33:52;95581.25;;;21.05;37.50
40205;BME280;26963;42.666;23.366;2022-10-30T09:36:18;95583.72;;;21.10;37.21
40205;BME280;26963;42.666;23.366;2022-10-30T09:38:43;95580.16;;;21.22;36.87
40205;BME280;26963;42.666;23.366;2022-10-30T09:47:13;95565.50;;;21.39;37.15
40205;BME280;26963;42.666;23.366;2022-10-30T09:52:26;95551.19;;;21.42;37.10
40205;BME280;26963;42.666;23.366;2022-10-30T09:57:53;95557.94;;;21.60;36.88
40205;BME280;26963;42.666;23.366;2022-10-30T10:00:23;95552.97;;;21.62;36.41
40205;BME280;26963;42.666;23.366;2022-10-30T10:03:21;95542.06;;;21.62;36.68
40205;BME280;26963;42.666;23.366;2022-10-30T10:05:54;95546.81;;;21.65;37.03
40205;BME280;26963;42.666;23.366;2022-10-30T10:08:47;95530.47;;;21.65;36.45
40205;BME280;26963;42.666;23.366;2022-10-30T10:11:29;95470.22;;;21.39;35.92
40205;BME280;26963;42.666;23.366;2022-10-30T10:14:14;95529.88;;;21.88;35.99
40205;BME280;26963;42.666;23.366;2022-10-30T10:16:42;95458.13;;;21.52;35.94
40205;BME280;26963;42.666;23.366;2022-10-30T10:19:27;95512.31;;;22.02;35.71
40205;BME280;26963;42.666;23.366;2022-10-30T10:21:57;95510.72;;;22.01;35.52
40205;BME280;26963;42.666;23.366;2022-10-30T10:24:30;95508.88;;;22.05;35.17
40205;BME280;26963;42.666;23.366;2022-10-30T10:32:47;95494.97;;;22.42;34.66
40205;BME280;26963;42.666;23.366;2022-10-30T10:41:17;95489.56;;;22.61;34.37
40205;BME280;26963;42.666;23.366;2022-10-30T10:44:13;95487.41;;;22.71;34.18
40205;BME280;26963;42.666;23.366;2022-10-30T10:50:23;95471.06;;;22.71;34.26
40205;BME280;26963;42.666;23.366;2022-10-30T10:55:31;95354.31;;;22.21;34.05
40205;BME280;26963;42.666;23.366;2022-10-30T10:58:05;95377.13;;;22.48;33.64
40205;BME280;26963;42.666;23.366;2022-10-30T11:00:31;95444.22;;;22.92;33.72
40205;BME280;26963;42.666;23.366;2022-10-30T11:03:13;95439.38;;;23.05;33.29
40205;BME280;26963;42.666;23.366;2022-10-30T11:08:27;95391.22;;;22.93;33.12
40205;BME280;26963;42.666;23.366;2022-10-30T11:10:58;95429.16;;;23.18;33.17
40205;BME280;26963;42.666;23.366;2022-10-30T11:13:30;95428.91;;;23.27;32.65
40205;BME280;26963;42.666;23.366;2022-10-30T11:18:47;95421.53;;;23.27;31.47
40205;BME280;26963;42.666;23.366;2022-10-30T11:21:18;95419.03;;;23.19;31.58
40205;BME280;26963;42.666;23.366;2022-10-30T11:23:47;95296.25;;;22.37;31.62
40205;BME280;26963;42.666;23.366;2022-10-30T11:28:47;95415.06;;;23.16;31.93
40205;BME280;26963;42.666;23.366;2022-10-30T11:31:24;95411.31;;;23.24;31.81
40205;BME280;26963;42.666;23.366;2022-10-30T11:33:52;95410.91;;;23.22;31.57
40205;BME280;26963;42.666;23.366;2022-10-30T11:36:22;95389.63;;;23.12;31.46
40205;BME280;26963;42.666;23.366;2022-10-30T11:38:49;95405.06;;;23.24;31.38
40205;BME280;26963;42.666;23.366;2022-10-30T11:41:15;95384.19;;;23.12;31.24
40205;BME280;26963;42.666;23.366;2022-10-30T11:43:42;95401.13;;;23.21;31.33
40205;BME280;26963;42.666;23.366;2022-10-30T11:46:10;95382.31;;;23.16;31.50
40205;BME280;26963;42.666;23.366;2022-10-30T11:48:42;95395.06;;;23.32;34.32
40205;BME280;26963;42.666;23.366;2022-10-30T11:51:09;95380.28;;;23.33;36.92
40205;BME280;26963;42.666;23.366;2022-10-30T11:53:42;95385.13;;;23.43;36.15
40205;BME280;26963;42.666;23.366;2022-10-30T11:56:19;95268.09;;;22.72;34.03
40205;BME280;26963;42.666;23.366;2022-10-30T11:58:57;95384.63;;;23.60;34.13
40205;BME280;26963;42.666;23.366;2022-10-30T12:01:30;95381.47;;;23.58;34.97
40205;BME280;26963;42.666;23.366;2022-10-30T12:04:13;95366.66;;;23.59;36.17
40205;BME280;26963;42.666;23.366;2022-10-30T12:06:39;95375.38;;;23.69;33.32
40205;BME280;26963;42.666;23.366;2022-10-30T12:09:13;95367.31;;;23.76;31.25
40205;BME280;26963;42.666;23.366;2022-10-30T12:11:41;95370.03;;;23.76;33.25
40205;BME280;26963;42.666;23.366;2022-10-30T12:14:16;95374.78;;;23.79;33.94
40205;BME280;26963;42.666;23.366;2022-10-30T12:16:46;95337.44;;;23.60;34.01
40205;BME280;26963;42.666;23.366;2022-10-30T12:19:13;95365.41;;;23.80;33.89
40205;BME280;26963;42.666;23.366;2022-10-30T12:22:06;95327.66;;;23.59;33.69
40205;BME280;26963;42.666;23.366;2022-10-30T12:24:35;95352.97;;;23.83;33.60
40205;BME280;26963;42.666;23.366;2022-10-30T12:27:09;95346.72;;;23.82;34.23
40205;BME280;26963;42.666;23.366;2022-10-30T12:32:51;95302.25;;;23.58;33.11
40205;BME280;26963;42.666;23.366;2022-10-30T12:35:31;95346.84;;;23.89;32.45
40205;BME280;26963;42.666;23.366;2022-10-30T12:38:01;95318.50;;;23.74;33.09
40205;BME280;26963;42.666;23.366;2022-10-30T12:40:37;95288.16;;;23.53;31.71
40205;BME280;26963;42.666;23.366;2022-10-30T13:09:10;95324.84;;;24.39;31.44
40205;BME280;26963;42.666;23.366;2022-10-30T13:12:12;95321.69;;;24.34;32.28
40205;BME280;26963;42.666;23.366;2022-10-30T13:14:57;95321.59;;;24.26;31.07
40205;BME280;26963;42.666;23.366;2022-10-30T13:17:25;95308.56;;;24.16;31.29
40205;BME280;26963;42.666;23.366;2022-10-30T13:19:53;95316.00;;;24.19;33.16
40205;BME280;26963;42.666;23.366;2022-10-30T13:27:58;95262.09;;;23.59;32.17
40205;BME280;26963;42.666;23.366;2022-10-30T13:30:36;95299.00;;;23.76;31.98
40205;BME280;26963;42.666;23.366;2022-10-30T13:33:14;95319.78;;;23.81;32.64
40205;BME280;26963;42.666;23.366;2022-10-30T13:36:12;95315.03;;;23.77;31.87
40205;BME280;26963;42.666;23.366;2022-10-30T13:38:59;95301.28;;;23.70;31.19
40205;BME280;26963;42.666;23.366;2022-10-30T13:44:12;95312.88;;;23.64;31.45
40205;BME280;26963;42.666;23.366;2022-10-30T13:52:21;95300.28;;;23.55;30.61
40205;BME280;26963;42.666;23.366;2022-10-30T14:00:15;95307.25;;;23.53;31.07
40205;BME280;26963;42.666;23.366;2022-10-30T14:10:47;95304.66;;;23.37;31.68
40205;BME280;26963;42.666;23.366;2022-10-30T14:13:20;95308.13;;;23.34;30.98
40205;BME280;26963;42.666;23.366;2022-10-30T14:15:53;95308.50;;;23.32;31.04
40205;BME280;26963;42.666;23.366;2022-10-30T14:18:27;95250.03;;;22.87;31.00
40205;BME280;26963;42.666;23.366;2022-10-30T14:20:56;95293.69;;;23.10;31.32
40205;BME280;26963;42.666;23.366;2022-10-30T14:23:24;95281.66;;;22.91;31.75
40205;BME280;26963;42.666;23.366;2022-10-30T14:28:30;95254.75;;;22.67;31.49
40205;BME280;26963;42.666;23.366;2022-10-30T14:31:11;95304.66;;;22.90;31.68
40205;BME280;26963;42.666;23.366;2022-10-30T14:36:46;95283.91;;;22.62;31.86
40205;BME280;26963;42.666;23.366;2022-10-30T14:44:57;95273.97;;;22.15;32.36
40205;BME280;26963;42.666;23.366;2022-10-30T14:47:32;95323.50;;;22.37;32.37
40205;BME280;26963;42.666;23.366;2022-10-30T14:50:51;95325.19;;;22.25;32.96
40205;BME280;26963;42.666;23.366;2022-10-30T14:53:41;95329.63;;;22.14;33.42
40205;BME280;26963;42.666;23.366;2022-10-30T14:58:43;95250.56;;;21.55;33.78
40205;BME280;26963;42.666;23.366;2022-10-30T15:01:54;95326.59;;;21.99;33.80
40205;BME280;26963;42.666;23.366;2022-10-30T15:07:53;95284.63;;;21.65;34.23
40205;BME280;26963;42.666;23.366;2022-10-30T15:10:32;95329.03;;;21.85;34.49
40205;BME280;26963;42.666;23.366;2022-10-30T15:13:08;95321.09;;;21.80;34.54
40205;BME280;26963;42.666;23.366;2022-10-30T15:15:37;95322.19;;;21.75;34.84
40205;BME280;26963;42.666;23.366;2022-10-30T15:18:17;95284.69;;;21.37;34.76
40205;BME280;26963;42.666;23.366;2022-10-30T15:20:49;95270.16;;;21.29;35.13
40205;BME280;26963;42.666;23.366;2022-10-30T15:25:48;95319.28;;;21.52;35.26